Nadym, Russia
Current Conditions -  °F | °C
As of 9:30 PM on Thursday 23 Oct 2014 (Local Time) from USRR Reporting Station
Scattered Clouds Scattered Clouds  
Wind Chill: -9°   Ceiling: Unl
Heat Index:   Visibility: 4mi
Dew Point:   Wind: 9mph
Humidity: 85%   Direction: 80°E
Pressure: 29.94"   Gusts: NA
Location:  65.53°N, 72.52°E
Report Text: USRR 231630Z 08004MPS 7000 SCT200 M15/M17 Q1014 NOSIG RMKQFE756 07////60
Loading
Personal Weather Stations






























Interactive Weather Map
Tropical Storm Tracking
New forecast layout! Learn more

10-Day Weather Forecast

Advertisements
Track Severe Weather on mobile